sensor_id;sensor_type;location;lat;lon;timestamp;P1;durP1;ratioP1;P2;durP2;ratioP2
60831;SDS011;46665;51.558;-0.448;2023-05-10T00:00:23;2.85;;;1.48;;
60831;SDS011;46665;51.558;-0.448;2023-05-10T00:02:49;1.48;;;1.00;;
60831;SDS011;46665;51.558;-0.448;2023-05-10T00:05:14;1.98;;;1.38;;
60831;SDS011;46665;51.558;-0.448;2023-05-10T00:07:40;1.13;;;1.08;;
60831;SDS011;46665;51.558;-0.448;2023-05-10T00:10:06;1.30;;;1.20;;
60831;SDS011;46665;51.558;-0.448;2023-05-10T00:12:31;3.97;;;1.38;;
60831;SDS011;46665;51.558;-0.448;2023-05-10T00:14:57;2.42;;;1.50;;
60831;SDS011;46665;51.558;-0.448;2023-05-10T00:17:22;2.42;;;1.27;;
60831;SDS011;46665;51.558;-0.448;2023-05-10T00:19:48;2.67;;;2.45;;
60831;SDS011;46665;51.558;-0.448;2023-05-10T00:22:13;1.27;;;1.17;;
60831;SDS011;46665;51.558;-0.448;2023-05-10T00:24:38;4.35;;;1.77;;
60831;SDS011;46665;51.558;-0.448;2023-05-10T00:27:04;1.45;;;1.35;;
60831;SDS011;46665;51.558;-0.448;2023-05-10T00:29:30;3.30;;;1.45;;
60831;SDS011;46665;51.558;-0.448;2023-05-10T00:31:55;6.93;;;2.33;;
60831;SDS011;46665;51.558;-0.448;2023-05-10T00:34:21;2.83;;;1.35;;
60831;SDS011;46665;51.558;-0.448;2023-05-10T00:36:46;7.72;;;1.88;;
60831;SDS011;46665;51.558;-0.448;2023-05-10T00:39:11;2.35;;;1.52;;
60831;SDS011;46665;51.558;-0.448;2023-05-10T00:41:37;2.08;;;1.63;;
60831;SDS011;46665;51.558;-0.448;2023-05-10T00:44:03;6.03;;;1.70;;
60831;SDS011;46665;51.558;-0.448;2023-05-10T00:46:29;1.42;;;1.33;;
60831;SDS011;46665;51.558;-0.448;2023-05-10T00:48:54;2.65;;;1.70;;
60831;SDS011;46665;51.558;-0.448;2023-05-10T00:51:20;1.45;;;1.33;;
60831;SDS011;46665;51.558;-0.448;2023-05-10T00:53:46;1.60;;;1.50;;
60831;SDS011;46665;51.558;-0.448;2023-05-10T00:56:12;7.57;;;1.70;;
60831;SDS011;46665;51.558;-0.448;2023-05-10T00:58:38;2.63;;;1.98;;
60831;SDS011;46665;51.558;-0.448;2023-05-10T01:01:04;2.35;;;1.63;;
60831;SDS011;46665;51.558;-0.448;2023-05-10T01:03:31;4.13;;;1.55;;
60831;SDS011;46665;51.558;-0.448;2023-05-10T01:05:57;1.00;;;0.90;;
60831;SDS011;46665;51.558;-0.448;2023-05-10T01:08:23;1.80;;;1.70;;
60831;SDS011;46665;51.558;-0.448;2023-05-10T01:10:49;3.17;;;1.50;;
60831;SDS011;46665;51.558;-0.448;2023-05-10T01:13:17;1.38;;;1.27;;
60831;SDS011;46665;51.558;-0.448;2023-05-10T01:15:55;2.40;;;1.77;;
60831;SDS011;46665;51.558;-0.448;2023-05-10T01:18:21;7.03;;;1.90;;
60831;SDS011;46665;51.558;-0.448;2023-05-10T01:20:47;1.50;;;1.40;;
60831;SDS011;46665;51.558;-0.448;2023-05-10T01:23:45;3.70;;;1.60;;
60831;SDS011;46665;51.558;-0.448;2023-05-10T01:34:40;2.70;;;1.63;;
60831;SDS011;46665;51.558;-0.448;2023-05-10T01:37:13;4.55;;;1.63;;
60831;SDS011;46665;51.558;-0.448;2023-05-10T01:43:01;5.47;;;1.50;;
60831;SDS011;46665;51.558;-0.448;2023-05-10T01:45:30;2.20;;;1.33;;
60831;SDS011;46665;51.558;-0.448;2023-05-10T01:48:04;2.50;;;1.45;;
60831;SDS011;46665;51.558;-0.448;2023-05-10T01:50:32;6.47;;;1.85;;
60831;SDS011;46665;51.558;-0.448;2023-05-10T01:53:00;1.80;;;1.70;;
60831;SDS011;46665;51.558;-0.448;2023-05-10T01:55:32;7.53;;;1.45;;
60831;SDS011;46665;51.558;-0.448;2023-05-10T01:58:07;2.40;;;1.45;;
60831;SDS011;46665;51.558;-0.448;2023-05-10T02:00:45;2.40;;;1.38;;
60831;SDS011;46665;51.558;-0.448;2023-05-10T02:03:12;1.80;;;1.20;;
60831;SDS011;46665;51.558;-0.448;2023-05-10T02:05:40;10.23;;;1.40;;
60831;SDS011;46665;51.558;-0.448;2023-05-10T02:08:06;3.72;;;1.38;;
60831;SDS011;46665;51.558;-0.448;2023-05-10T02:10:36;2.97;;;1.25;;
60831;SDS011;46665;51.558;-0.448;2023-05-10T02:13:04;4.88;;;1.40;;
60831;SDS011;46665;51.558;-0.448;2023-05-10T02:15:32;2.28;;;1.70;;
60831;SDS011;46665;51.558;-0.448;2023-05-10T02:17:59;1.85;;;1.35;;
60831;SDS011;46665;51.558;-0.448;2023-05-10T02:20:27;2.15;;;1.95;;
60831;SDS011;46665;51.558;-0.448;2023-05-10T02:22:55;1.10;;;1.02;;
60831;SDS011;46665;51.558;-0.448;2023-05-10T02:25:22;1.80;;;1.42;;
60831;SDS011;46665;51.558;-0.448;2023-05-10T02:27:49;1.98;;;1.20;;
60831;SDS011;46665;51.558;-0.448;2023-05-10T02:30:17;4.10;;;1.80;;
60831;SDS011;46665;51.558;-0.448;2023-05-10T02:32:44;1.55;;;1.45;;
60831;SDS011;46665;51.558;-0.448;2023-05-10T02:35:10;1.88;;;1.55;;
60831;SDS011;46665;51.558;-0.448;2023-05-10T02:37:37;3.92;;;2.00;;
60831;SDS011;46665;51.558;-0.448;2023-05-10T02:40:03;1.30;;;1.17;;
60831;SDS011;46665;51.558;-0.448;2023-05-10T02:42:32;2.38;;;1.77;;
60831;SDS011;46665;51.558;-0.448;2023-05-10T02:45:00;2.92;;;1.42;;
60831;SDS011;46665;51.558;-0.448;2023-05-10T02:47:27;1.95;;;1.48;;
60831;SDS011;46665;51.558;-0.448;2023-05-10T02:49:53;1.23;;;1.10;;
60831;SDS011;46665;51.558;-0.448;2023-05-10T02:52:21;10.90;;;1.20;;
60831;SDS011;46665;51.558;-0.448;2023-05-10T02:54:50;2.17;;;1.30;;
60831;SDS011;46665;51.558;-0.448;2023-05-10T02:57:24;3.25;;;1.30;;
60831;SDS011;46665;51.558;-0.448;2023-05-10T02:59:52;6.38;;;1.52;;
60831;SDS011;46665;51.558;-0.448;2023-05-10T03:02:17;2.17;;;1.30;;
60831;SDS011;46665;51.558;-0.448;2023-05-10T03:04:43;2.17;;;1.38;;
60831;SDS011;46665;51.558;-0.448;2023-05-10T03:07:09;5.63;;;1.58;;
60831;SDS011;46665;51.558;-0.448;2023-05-10T03:09:34;1.92;;;1.33;;
60831;SDS011;46665;51.558;-0.448;2023-05-10T03:14:41;3.35;;;1.27;;
60831;SDS011;46665;51.558;-0.448;2023-05-10T03:17:15;1.33;;;1.08;;
60831;SDS011;46665;51.558;-0.448;2023-05-10T03:19:55;1.63;;;1.50;;
60831;SDS011;46665;51.558;-0.448;2023-05-10T03:22:41;6.47;;;1.85;;
60831;SDS011;46665;51.558;-0.448;2023-05-10T03:25:10;1.50;;;1.40;;
60831;SDS011;46665;51.558;-0.448;2023-05-10T03:27:39;1.42;;;1.33;;
60831;SDS011;46665;51.558;-0.448;2023-05-10T03:30:08;2.72;;;1.88;;
60831;SDS011;46665;51.558;-0.448;2023-05-10T03:32:36;7.07;;;2.05;;
60831;SDS011;46665;51.558;-0.448;2023-05-10T03:35:08;2.83;;;1.60;;
60831;SDS011;46665;51.558;-0.448;2023-05-10T03:37:34;1.73;;;1.02;;
60831;SDS011;46665;51.558;-0.448;2023-05-10T03:40:00;1.27;;;1.17;;
60831;SDS011;46665;51.558;-0.448;2023-05-10T03:42:26;1.45;;;1.33;;
60831;SDS011;46665;51.558;-0.448;2023-05-10T03:44:51;3.92;;;1.48;;
60831;SDS011;46665;51.558;-0.448;2023-05-10T03:47:16;2.08;;;1.17;;
60831;SDS011;46665;51.558;-0.448;2023-05-10T03:49:42;2.20;;;0.85;;
60831;SDS011;46665;51.558;-0.448;2023-05-10T03:52:08;2.45;;;1.80;;
60831;SDS011;46665;51.558;-0.448;2023-05-10T03:54:33;2.53;;;1.65;;
60831;SDS011;46665;51.558;-0.448;2023-05-10T03:56:58;3.17;;;1.52;;
60831;SDS011;46665;51.558;-0.448;2023-05-10T03:59:25;1.65;;;1.42;;
60831;SDS011;46665;51.558;-0.448;2023-05-10T04:01:50;2.67;;;1.40;;
60831;SDS011;46665;51.558;-0.448;2023-05-10T04:04:16;3.28;;;2.10;;
60831;SDS011;46665;51.558;-0.448;2023-05-10T04:06:43;4.55;;;1.42;;
60831;SDS011;46665;51.558;-0.448;2023-05-10T04:09:09;3.72;;;1.88;;
60831;SDS011;46665;51.558;-0.448;2023-05-10T04:11:34;4.20;;;1.70;;
60831;SDS011;46665;51.558;-0.448;2023-05-10T04:13:59;3.05;;;1.85;;
60831;SDS011;46665;51.558;-0.448;2023-05-10T04:16:25;2.47;;;1.75;;
60831;SDS011;46665;51.558;-0.448;2023-05-10T04:18:50;3.47;;;1.58;;
60831;SDS011;46665;51.558;-0.448;2023-05-10T04:21:15;3.42;;;2.92;;
60831;SDS011;46665;51.558;-0.448;2023-05-10T04:23:41;3.67;;;2.13;;
60831;SDS011;46665;51.558;-0.448;2023-05-10T04:26:06;3.55;;;1.85;;
60831;SDS011;46665;51.558;-0.448;2023-05-10T04:28:33;2.25;;;2.05;;
60831;SDS011;46665;51.558;-0.448;2023-05-10T04:33:28;4.85;;;2.25;;
60831;SDS011;46665;51.558;-0.448;2023-05-10T04:35:53;5.53;;;2.65;;
60831;SDS011;46665;51.558;-0.448;2023-05-10T04:38:19;7.05;;;2.95;;
60831;SDS011;46665;51.558;-0.448;2023-05-10T04:40:44;5.88;;;3.08;;
60831;SDS011;46665;51.558;-0.448;2023-05-10T04:43:09;10.40;;;3.47;;
60831;SDS011;46665;51.558;-0.448;2023-05-10T04:45:35;9.52;;;4.07;;
60831;SDS011;46665;51.558;-0.448;2023-05-10T04:48:00;4.57;;;3.50;;
60831;SDS011;46665;51.558;-0.448;2023-05-10T04:50:25;13.25;;;4.57;;
60831;SDS011;46665;51.558;-0.448;2023-05-10T04:52:51;10.27;;;4.25;;
60831;SDS011;46665;51.558;-0.448;2023-05-10T04:55:16;12.05;;;4.28;;
60831;SDS011;46665;51.558;-0.448;2023-05-10T04:57:42;7.88;;;4.10;;
60831;SDS011;46665;51.558;-0.448;2023-05-10T05:00:07;4.65;;;3.50;;
60831;SDS011;46665;51.558;-0.448;2023-05-10T05:02:33;11.50;;;4.90;;
60831;SDS011;46665;51.558;-0.448;2023-05-10T05:04:58;9.35;;;3.70;;
60831;SDS011;46665;51.558;-0.448;2023-05-10T05:07:24;5.45;;;3.47;;
60831;SDS011;46665;51.558;-0.448;2023-05-10T05:09:49;10.63;;;4.63;;
60831;SDS011;46665;51.558;-0.448;2023-05-10T05:12:15;7.55;;;3.65;;
60831;SDS011;46665;51.558;-0.448;2023-05-10T05:14:40;6.25;;;3.83;;
60831;SDS011;46665;51.558;-0.448;2023-05-10T05:17:06;9.38;;;3.38;;
60831;SDS011;46665;51.558;-0.448;2023-05-10T05:19:32;10.00;;;4.00;;
60831;SDS011;46665;51.558;-0.448;2023-05-10T05:21:57;13.02;;;2.67;;
60831;SDS011;46665;51.558;-0.448;2023-05-10T05:24:22;5.55;;;3.38;;
60831;SDS011;46665;51.558;-0.448;2023-05-10T05:26:48;3.80;;;3.28;;
60831;SDS011;46665;51.558;-0.448;2023-05-10T05:29:13;15.63;;;3.58;;
60831;SDS011;46665;51.558;-0.448;2023-05-10T05:31:39;7.22;;;3.90;;
60831;SDS011;46665;51.558;-0.448;2023-05-10T05:34:04;4.53;;;3.53;;
60831;SDS011;46665;51.558;-0.448;2023-05-10T05:36:29;5.95;;;3.90;;
60831;SDS011;46665;51.558;-0.448;2023-05-10T05:38:56;6.85;;;2.58;;
60831;SDS011;46665;51.558;-0.448;2023-05-10T05:41:22;10.40;;;3.42;;
60831;SDS011;46665;51.558;-0.448;2023-05-10T05:43:48;11.27;;;4.00;;
60831;SDS011;46665;51.558;-0.448;2023-05-10T05:46:14;9.88;;;3.42;;
60831;SDS011;46665;51.558;-0.448;2023-05-10T05:48:39;5.32;;;3.13;;
60831;SDS011;46665;51.558;-0.448;2023-05-10T05:51:05;8.65;;;3.88;;
60831;SDS011;46665;51.558;-0.448;2023-05-10T05:53:30;3.55;;;2.67;;
60831;SDS011;46665;51.558;-0.448;2023-05-10T05:55:57;7.50;;;2.97;;
60831;SDS011;46665;51.558;-0.448;2023-05-10T05:58:23;4.75;;;2.60;;
60831;SDS011;46665;51.558;-0.448;2023-05-10T06:00:50;16.88;;;3.53;;
60831;SDS011;46665;51.558;-0.448;2023-05-10T06:03:17;6.20;;;3.42;;
60831;SDS011;46665;51.558;-0.448;2023-05-10T06:05:42;3.00;;;2.78;;
60831;SDS011;46665;51.558;-0.448;2023-05-10T06:08:08;4.53;;;2.60;;
60831;SDS011;46665;51.558;-0.448;2023-05-10T06:10:33;7.55;;;2.72;;
60831;SDS011;46665;51.558;-0.448;2023-05-10T06:12:59;8.60;;;2.38;;
60831;SDS011;46665;51.558;-0.448;2023-05-10T06:15:24;8.00;;;2.85;;
60831;SDS011;46665;51.558;-0.448;2023-05-10T06:17:51;6.20;;;2.00;;
60831;SDS011;46665;51.558;-0.448;2023-05-10T06:20:16;2.60;;;2.40;;
60831;SDS011;46665;51.558;-0.448;2023-05-10T06:22:42;8.15;;;2.80;;
60831;SDS011;46665;51.558;-0.448;2023-05-10T06:25:07;3.25;;;2.58;;
60831;SDS011;46665;51.558;-0.448;2023-05-10T06:27:33;4.75;;;2.40;;
60831;SDS011;46665;51.558;-0.448;2023-05-10T06:29:59;4.07;;;2.22;;
60831;SDS011;46665;51.558;-0.448;2023-05-10T06:32:24;6.20;;;2.78;;
60831;SDS011;46665;51.558;-0.448;2023-05-10T06:34:50;2.75;;;1.98;;
60831;SDS011;46665;51.558;-0.448;2023-05-10T06:37:15;4.68;;;1.95;;
60831;SDS011;46665;51.558;-0.448;2023-05-10T06:39:41;11.77;;;2.00;;
60831;SDS011;46665;51.558;-0.448;2023-05-10T06:42:07;11.90;;;2.58;;
60831;SDS011;46665;51.558;-0.448;2023-05-10T06:44:32;13.98;;;2.97;;
60831;SDS011;46665;51.558;-0.448;2023-05-10T06:46:58;14.13;;;2.45;;
60831;SDS011;46665;51.558;-0.448;2023-05-10T06:49:23;6.68;;;1.52;;
60831;SDS011;46665;51.558;-0.448;2023-05-10T06:51:48;8.98;;;2.38;;
60831;SDS011;46665;51.558;-0.448;2023-05-10T06:54:14;9.77;;;1.58;;
60831;SDS011;46665;51.558;-0.448;2023-05-10T06:56:39;4.70;;;1.88;;
60831;SDS011;46665;51.558;-0.448;2023-05-10T06:59:05;11.30;;;3.25;;
60831;SDS011;46665;51.558;-0.448;2023-05-10T07:01:30;6.10;;;2.50;;
60831;SDS011;46665;51.558;-0.448;2023-05-10T07:03:55;2.95;;;1.40;;
60831;SDS011;46665;51.558;-0.448;2023-05-10T07:06:21;7.70;;;1.98;;
60831;SDS011;46665;51.558;-0.448;2023-05-10T07:08:47;5.55;;;1.85;;
60831;SDS011;46665;51.558;-0.448;2023-05-10T07:11:12;8.07;;;2.58;;
60831;SDS011;46665;51.558;-0.448;2023-05-10T07:13:37;15.23;;;1.77;;
60831;SDS011;46665;51.558;-0.448;2023-05-10T07:16:06;6.03;;;1.95;;
60831;SDS011;46665;51.558;-0.448;2023-05-10T07:18:33;4.28;;;2.28;;
60831;SDS011;46665;51.558;-0.448;2023-05-10T07:20:58;4.55;;;1.45;;
60831;SDS011;46665;51.558;-0.448;2023-05-10T07:23:24;5.65;;;2.00;;
60831;SDS011;46665;51.558;-0.448;2023-05-10T07:25:50;2.15;;;1.63;;
60831;SDS011;46665;51.558;-0.448;2023-05-10T07:28:19;9.73;;;2.60;;
60831;SDS011;46665;51.558;-0.448;2023-05-10T07:30:45;2.60;;;1.58;;
60831;SDS011;46665;51.558;-0.448;2023-05-10T07:33:11;2.28;;;1.45;;
60831;SDS011;46665;51.558;-0.448;2023-05-10T07:35:38;7.95;;;1.73;;
60831;SDS011;46665;51.558;-0.448;2023-05-10T07:38:03;2.72;;;1.98;;
60831;SDS011;46665;51.558;-0.448;2023-05-10T07:40:29;4.85;;;2.28;;
60831;SDS011;46665;51.558;-0.448;2023-05-10T07:42:55;7.20;;;2.38;;
60831;SDS011;46665;51.558;-0.448;2023-05-10T07:45:20;7.85;;;2.58;;
60831;SDS011;46665;51.558;-0.448;2023-05-10T07:47:46;7.00;;;2.45;;
60831;SDS011;46665;51.558;-0.448;2023-05-10T07:50:11;3.05;;;1.83;;
60831;SDS011;46665;51.558;-0.448;2023-05-10T07:52:36;2.28;;;1.75;;
60831;SDS011;46665;51.558;-0.448;2023-05-10T07:55:02;4.25;;;1.98;;
60831;SDS011;46665;51.558;-0.448;2023-05-10T07:57:27;5.25;;;1.90;;
60831;SDS011;46665;51.558;-0.448;2023-05-10T07:59:53;6.15;;;2.53;;
60831;SDS011;46665;51.558;-0.448;2023-05-10T08:02:18;4.18;;;2.40;;
60831;SDS011;46665;51.558;-0.448;2023-05-10T08:04:44;7.40;;;2.13;;
60831;SDS011;46665;51.558;-0.448;2023-05-10T08:07:09;2.80;;;1.75;;
60831;SDS011;46665;51.558;-0.448;2023-05-10T08:09:35;2.95;;;1.67;;
60831;SDS011;46665;51.558;-0.448;2023-05-10T08:12:01;3.50;;;2.10;;
60831;SDS011;46665;51.558;-0.448;2023-05-10T08:14:27;2.95;;;2.28;;
60831;SDS011;46665;51.558;-0.448;2023-05-10T08:16:54;3.60;;;2.00;;
60831;SDS011;46665;51.558;-0.448;2023-05-10T08:19:19;2.53;;;1.98;;
60831;SDS011;46665;51.558;-0.448;2023-05-10T08:21:46;4.95;;;2.58;;
60831;SDS011;46665;51.558;-0.448;2023-05-10T08:24:12;6.80;;;3.05;;
60831;SDS011;46665;51.558;-0.448;2023-05-10T08:26:37;3.47;;;2.58;;
60831;SDS011;46665;51.558;-0.448;2023-05-10T08:29:03;6.78;;;2.42;;
60831;SDS011;46665;51.558;-0.448;2023-05-10T08:31:28;5.53;;;3.03;;
60831;SDS011;46665;51.558;-0.448;2023-05-10T08:33:53;4.22;;;2.65;;
60831;SDS011;46665;51.558;-0.448;2023-05-10T08:36:19;5.60;;;2.33;;
60831;SDS011;46665;51.558;-0.448;2023-05-10T08:38:55;8.38;;;3.80;;
60831;SDS011;46665;51.558;-0.448;2023-05-10T08:41:21;3.05;;;1.92;;
60831;SDS011;46665;51.558;-0.448;2023-05-10T08:43:49;9.50;;;3.13;;
60831;SDS011;46665;51.558;-0.448;2023-05-10T08:46:16;6.47;;;3.03;;
60831;SDS011;46665;51.558;-0.448;2023-05-10T08:48:46;3.15;;;2.22;;
60831;SDS011;46665;51.558;-0.448;2023-05-10T08:51:17;6.88;;;2.53;;
60831;SDS011;46665;51.558;-0.448;2023-05-10T08:53:43;6.93;;;2.92;;
60831;SDS011;46665;51.558;-0.448;2023-05-10T08:56:10;5.00;;;2.80;;
60831;SDS011;46665;51.558;-0.448;2023-05-10T08:58:35;8.75;;;3.13;;
60831;SDS011;46665;51.558;-0.448;2023-05-10T09:01:01;3.97;;;2.55;;
60831;SDS011;46665;51.558;-0.448;2023-05-10T09:03:28;10.55;;;2.60;;
60831;SDS011;46665;51.558;-0.448;2023-05-10T09:05:53;6.88;;;3.28;;
60831;SDS011;46665;51.558;-0.448;2023-05-10T09:08:20;7.13;;;3.20;;
60831;SDS011;46665;51.558;-0.448;2023-05-10T09:10:50;7.82;;;3.05;;
60831;SDS011;46665;51.558;-0.448;2023-05-10T09:13:15;5.70;;;2.75;;
60831;SDS011;46665;51.558;-0.448;2023-05-10T09:15:43;3.25;;;2.95;;
60831;SDS011;46665;51.558;-0.448;2023-05-10T09:18:09;6.60;;;3.35;;
60831;SDS011;46665;51.558;-0.448;2023-05-10T09:20:35;5.47;;;2.53;;
60831;SDS011;46665;51.558;-0.448;2023-05-10T09:23:00;6.03;;;2.72;;
60831;SDS011;46665;51.558;-0.448;2023-05-10T09:25:25;5.22;;;2.67;;
60831;SDS011;46665;51.558;-0.448;2023-05-10T09:27:51;8.73;;;3.08;;
60831;SDS011;46665;51.558;-0.448;2023-05-10T09:30:26;8.90;;;2.65;;
60831;SDS011;46665;51.558;-0.448;2023-05-10T09:32:53;5.80;;;3.35;;
60831;SDS011;46665;51.558;-0.448;2023-05-10T09:35:20;13.07;;;3.25;;
60831;SDS011;46665;51.558;-0.448;2023-05-10T09:37:49;7.57;;;3.70;;
60831;SDS011;46665;51.558;-0.448;2023-05-10T09:40:16;7.82;;;2.75;;
60831;SDS011;46665;51.558;-0.448;2023-05-10T09:42:50;3.58;;;2.40;;
60831;SDS011;46665;51.558;-0.448;2023-05-10T09:45:17;8.45;;;2.83;;
60831;SDS011;46665;51.558;-0.448;2023-05-10T09:47:42;3.38;;;2.00;;
60831;SDS011;46665;51.558;-0.448;2023-05-10T09:50:08;3.53;;;1.63;;
60831;SDS011;46665;51.558;-0.448;2023-05-10T09:55:41;7.22;;;3.15;;
60831;SDS011;46665;51.558;-0.448;2023-05-10T09:58:11;8.32;;;2.20;;
60831;SDS011;46665;51.558;-0.448;2023-05-10T10:00:41;4.80;;;1.73;;
60831;SDS011;46665;51.558;-0.448;2023-05-10T10:03:13;3.38;;;1.95;;
60831;SDS011;46665;51.558;-0.448;2023-05-10T10:05:42;4.00;;;1.85;;
60831;SDS011;46665;51.558;-0.448;2023-05-10T10:08:09;5.65;;;2.40;;
60831;SDS011;46665;51.558;-0.448;2023-05-10T10:10:35;7.20;;;2.13;;
60831;SDS011;46665;51.558;-0.448;2023-05-10T10:13:01;3.70;;;1.27;;
60831;SDS011;46665;51.558;-0.448;2023-05-10T10:15:27;7.07;;;1.92;;
60831;SDS011;46665;51.558;-0.448;2023-05-10T10:17:52;3.08;;;1.85;;
60831;SDS011;46665;51.558;-0.448;2023-05-10T10:20:19;5.90;;;1.95;;
60831;SDS011;46665;51.558;-0.448;2023-05-10T10:22:47;4.93;;;1.38;;
60831;SDS011;46665;51.558;-0.448;2023-05-10T10:25:14;1.88;;;0.73;;
60831;SDS011;46665;51.558;-0.448;2023-05-10T10:35:54;6.72;;;1.17;;
60831;SDS011;46665;51.558;-0.448;2023-05-10T10:38:22;4.60;;;1.10;;
60831;SDS011;46665;51.558;-0.448;2023-05-10T10:40:48;1.73;;;0.80;;
60831;SDS011;46665;51.558;-0.448;2023-05-10T10:43:26;2.17;;;0.88;;
60831;SDS011;46665;51.558;-0.448;2023-05-10T10:46:09;2.38;;;1.17;;
60831;SDS011;46665;51.558;-0.448;2023-05-10T10:48:38;2.40;;;0.95;;
60831;SDS011;46665;51.558;-0.448;2023-05-10T10:51:05;2.35;;;1.00;;
60831;SDS011;46665;51.558;-0.448;2023-05-10T10:53:30;3.95;;;1.00;;
60831;SDS011;46665;51.558;-0.448;2023-05-10T10:56:06;1.25;;;0.70;;
60831;SDS011;46665;51.558;-0.448;2023-05-10T10:58:34;1.83;;;0.95;;
60831;SDS011;46665;51.558;-0.448;2023-05-10T11:01:13;6.38;;;0.88;;
60831;SDS011;46665;51.558;-0.448;2023-05-10T11:03:41;2.17;;;1.30;;
60831;SDS011;46665;51.558;-0.448;2023-05-10T11:06:28;3.35;;;1.13;;
60831;SDS011;46665;51.558;-0.448;2023-05-10T11:08:57;1.15;;;0.77;;
60831;SDS011;46665;51.558;-0.448;2023-05-10T11:11:23;3.00;;;1.17;;
60831;SDS011;46665;51.558;-0.448;2023-05-10T11:13:49;0.85;;;0.85;;
60831;SDS011;46665;51.558;-0.448;2023-05-10T11:16:15;2.00;;;0.70;;
60831;SDS011;46665;51.558;-0.448;2023-05-10T11:21:28;1.75;;;0.68;;
60831;SDS011;46665;51.558;-0.448;2023-05-10T11:23:55;2.05;;;1.00;;
60831;SDS011;46665;51.558;-0.448;2023-05-10T11:26:25;4.63;;;0.70;;
60831;SDS011;46665;51.558;-0.448;2023-05-10T11:28:55;1.17;;;0.85;;
60831;SDS011;46665;51.558;-0.448;2023-05-10T11:31:21;6.57;;;1.02;;
60831;SDS011;46665;51.558;-0.448;2023-05-10T11:33:49;2.05;;;1.05;;
60831;SDS011;46665;51.558;-0.448;2023-05-10T11:36:29;1.98;;;1.20;;
60831;SDS011;46665;51.558;-0.448;2023-05-10T11:38:58;2.60;;;1.02;;
60831;SDS011;46665;51.558;-0.448;2023-05-10T11:41:23;2.10;;;1.23;;
60831;SDS011;46665;51.558;-0.448;2023-05-10T11:43:50;1.08;;;0.88;;
60831;SDS011;46665;51.558;-0.448;2023-05-10T11:46:18;1.80;;;0.85;;
60831;SDS011;46665;51.558;-0.448;2023-05-10T11:48:49;2.35;;;1.42;;
60831;SDS011;46665;51.558;-0.448;2023-05-10T11:51:19;2.67;;;1.48;;
60831;SDS011;46665;51.558;-0.448;2023-05-10T11:53:45;4.90;;;0.98;;
60831;SDS011;46665;51.558;-0.448;2023-05-10T11:56:11;3.63;;;1.05;;
60831;SDS011;46665;51.558;-0.448;2023-05-10T11:58:37;6.35;;;1.75;;
60831;SDS011;46665;51.558;-0.448;2023-05-10T12:01:06;2.78;;;1.15;;
60831;SDS011;46665;51.558;-0.448;2023-05-10T12:03:32;3.30;;;0.98;;
60831;SDS011;46665;51.558;-0.448;2023-05-10T12:05:59;2.70;;;1.00;;
60831;SDS011;46665;51.558;-0.448;2023-05-10T12:08:26;6.65;;;0.93;;
60831;SDS011;46665;51.558;-0.448;2023-05-10T12:10:53;2.05;;;0.70;;
60831;SDS011;46665;51.558;-0.448;2023-05-10T12:13:28;2.15;;;1.02;;
60831;SDS011;46665;51.558;-0.448;2023-05-10T12:15:54;2.85;;;1.10;;
60831;SDS011;46665;51.558;-0.448;2023-05-10T12:18:22;3.92;;;1.30;;
60831;SDS011;46665;51.558;-0.448;2023-05-10T12:20:52;3.63;;;1.17;;
60831;SDS011;46665;51.558;-0.448;2023-05-10T12:23:20;5.25;;;1.30;;
60831;SDS011;46665;51.558;-0.448;2023-05-10T12:25:46;5.47;;;2.50;;
60831;SDS011;46665;51.558;-0.448;2023-05-10T12:28:12;3.35;;;1.23;;
60831;SDS011;46665;51.558;-0.448;2023-05-10T12:30:37;4.40;;;1.23;;
60831;SDS011;46665;51.558;-0.448;2023-05-10T12:33:10;1.55;;;0.80;;
60831;SDS011;46665;51.558;-0.448;2023-05-10T12:35:44;3.20;;;1.08;;
60831;SDS011;46665;51.558;-0.448;2023-05-10T12:38:26;2.72;;;1.35;;
60831;SDS011;46665;51.558;-0.448;2023-05-10T12:40:59;2.75;;;1.63;;
60831;SDS011;46665;51.558;-0.448;2023-05-10T12:43:25;11.63;;;1.48;;
60831;SDS011;46665;51.558;-0.448;2023-05-10T12:45:51;6.43;;;1.83;;
60831;SDS011;46665;51.558;-0.448;2023-05-10T12:48:17;8.73;;;1.95;;
60831;SDS011;46665;51.558;-0.448;2023-05-10T12:50:42;2.63;;;1.35;;
60831;SDS011;46665;51.558;-0.448;2023-05-10T12:53:08;4.50;;;0.95;;
60831;SDS011;46665;51.558;-0.448;2023-05-10T12:55:33;4.18;;;1.52;;
60831;SDS011;46665;51.558;-0.448;2023-05-10T12:57:59;7.13;;;1.00;;
60831;SDS011;46665;51.558;-0.448;2023-05-10T13:00:24;5.88;;;0.90;;
60831;SDS011;46665;51.558;-0.448;2023-05-10T13:02:50;3.55;;;0.95;;
60831;SDS011;46665;51.558;-0.448;2023-05-10T13:05:15;1.50;;;1.00;;
60831;SDS011;46665;51.558;-0.448;2023-05-10T13:07:41;2.22;;;1.02;;
60831;SDS011;46665;51.558;-0.448;2023-05-10T13:10:08;1.90;;;1.20;;
60831;SDS011;46665;51.558;-0.448;2023-05-10T13:12:34;2.97;;;1.33;;
60831;SDS011;46665;51.558;-0.448;2023-05-10T13:15:00;5.10;;;1.38;;
60831;SDS011;46665;51.558;-0.448;2023-05-10T13:17:25;3.83;;;1.20;;
60831;SDS011;46665;51.558;-0.448;2023-05-10T13:19:51;5.15;;;1.67;;
60831;SDS011;46665;51.558;-0.448;2023-05-10T13:22:16;2.22;;;1.40;;
60831;SDS011;46665;51.558;-0.448;2023-05-10T13:24:42;1.02;;;0.80;;
60831;SDS011;46665;51.558;-0.448;2023-05-10T13:27:07;1.83;;;1.55;;
60831;SDS011;46665;51.558;-0.448;2023-05-10T13:29:33;1.08;;;0.77;;
60831;SDS011;46665;51.558;-0.448;2023-05-10T13:31:58;6.47;;;0.65;;
60831;SDS011;46665;51.558;-0.448;2023-05-10T13:34:24;0.68;;;0.68;;
60831;SDS011;46665;51.558;-0.448;2023-05-10T13:36:49;2.33;;;0.52;;
60831;SDS011;46665;51.558;-0.448;2023-05-10T13:39:15;0.60;;;0.20;;
60831;SDS011;46665;51.558;-0.448;2023-05-10T13:41:40;0.30;;;0.30;;
60831;SDS011;46665;51.558;-0.448;2023-05-10T13:44:06;1.55;;;0.50;;
60831;SDS011;46665;51.558;-0.448;2023-05-10T13:46:31;6.15;;;0.30;;
60831;SDS011;46665;51.558;-0.448;2023-05-10T13:48:57;2.05;;;0.98;;
60831;SDS011;46665;51.558;-0.448;2023-05-10T13:51:22;1.48;;;0.35;;
60831;SDS011;46665;51.558;-0.448;2023-05-10T13:53:48;0.30;;;0.30;;
60831;SDS011;46665;51.558;-0.448;2023-05-10T13:56:13;0.50;;;0.50;;
60831;SDS011;46665;51.558;-0.448;2023-05-10T13:58:39;0.60;;;0.47;;
60831;SDS011;46665;51.558;-0.448;2023-05-10T14:01:05;0.30;;;0.30;;
60831;SDS011;46665;51.558;-0.448;2023-05-10T14:03:30;0.57;;;0.20;;
60831;SDS011;46665;51.558;-0.448;2023-05-10T14:05:56;1.08;;;0.93;;
60831;SDS011;46665;51.558;-0.448;2023-05-10T14:08:21;0.65;;;0.43;;
60831;SDS011;46665;51.558;-0.448;2023-05-10T14:10:47;0.77;;;0.47;;
60831;SDS011;46665;51.558;-0.448;2023-05-10T14:13:14;0.40;;;0.40;;
60831;SDS011;46665;51.558;-0.448;2023-05-10T14:15:40;4.65;;;0.70;;
60831;SDS011;46665;51.558;-0.448;2023-05-10T14:18:06;2.42;;;0.57;;
60831;SDS011;46665;51.558;-0.448;2023-05-10T14:20:31;2.08;;;0.80;;
60831;SDS011;46665;51.558;-0.448;2023-05-10T14:22:58;1.10;;;0.50;;
60831;SDS011;46665;51.558;-0.448;2023-05-10T14:25:24;4.93;;;0.90;;
60831;SDS011;46665;51.558;-0.448;2023-05-10T14:27:50;1.65;;;1.00;;
60831;SDS011;46665;51.558;-0.448;2023-05-10T14:30:16;0.52;;;0.52;;
60831;SDS011;46665;51.558;-0.448;2023-05-10T14:32:41;3.58;;;0.98;;
60831;SDS011;46665;51.558;-0.448;2023-05-10T14:35:07;4.75;;;1.08;;
60831;SDS011;46665;51.558;-0.448;2023-05-10T14:37:32;1.10;;;0.77;;
60831;SDS011;46665;51.558;-0.448;2023-05-10T14:39:58;0.57;;;0.57;;
60831;SDS011;46665;51.558;-0.448;2023-05-10T14:42:23;3.85;;;0.60;;
60831;SDS011;46665;51.558;-0.448;2023-05-10T14:44:49;1.35;;;0.60;;
60831;SDS011;46665;51.558;-0.448;2023-05-10T14:47:14;1.88;;;0.82;;
60831;SDS011;46665;51.558;-0.448;2023-05-10T14:49:39;1.25;;;0.60;;
60831;SDS011;46665;51.558;-0.448;2023-05-10T14:52:05;5.70;;;0.68;;
60831;SDS011;46665;51.558;-0.448;2023-05-10T14:54:31;0.60;;;0.52;;
60831;SDS011;46665;51.558;-0.448;2023-05-10T14:56:58;1.15;;;0.50;;
60831;SDS011;46665;51.558;-0.448;2023-05-10T14:59:24;2.15;;;0.70;;
60831;SDS011;46665;51.558;-0.448;2023-05-10T15:01:49;0.82;;;0.70;;